Terminal Aerodrome Forecast
Issued by NWS Albany, NY

Home | Current Version | Previous Version | Text Only | Print | Product List | Glossary On
Versions: 1 2 3 4 5 6 7 8 9 10 11 12 13 14 15 16 17 18 19 20 21 22 23 24
000
FTUS41 KALY 051142
TAFALB
TAF
KALB 051142Z 0512/0612 30006KT P6SM BKN090 BKN110 BKN260
     FM051400 33009KT P6SM SCT040 BKN080 BKN250
     FM060300 34004KT P6SM SCT100 OVC250
     FM060900 VRB03KT P6SM BKN100 OVC250=

USA.gov is the U.S. government's official web portal to all federal, state and local government web resources and services.